createdAt,value
2018-07-02T00:02:01.140Z,17.30
2018-07-02T00:04:29.304Z,17.30
2018-07-02T00:07:08.694Z,17.20
2018-07-02T00:09:36.892Z,17.10
2018-07-02T00:12:05.906Z,17.00
2018-07-02T00:14:34.064Z,17.00
2018-07-02T00:17:02.206Z,17.00
2018-07-02T00:19:30.338Z,16.90
2018-07-02T00:21:58.478Z,16.90
2018-07-02T00:24:26.594Z,16.90
2018-07-02T00:26:54.747Z,16.80
2018-07-02T00:29:22.934Z,16.80
2018-07-02T00:31:51.133Z,16.70
2018-07-02T00:34:19.242Z,16.60
2018-07-02T00:36:47.421Z,16.60
2018-07-02T00:39:15.535Z,16.60
2018-07-02T00:41:44.119Z,16.50
2018-07-02T00:44:12.798Z,16.50
2018-07-02T00:46:40.932Z,16.40
2018-07-02T00:49:09.057Z,16.40
2018-07-02T00:51:37.336Z,16.40
2018-07-02T00:54:05.564Z,16.30
2018-07-02T00:56:33.775Z,16.20
2018-07-02T00:59:01.935Z,16.20
2018-07-02T01:01:30.106Z,16.20
2018-07-02T01:03:59.351Z,16.10
2018-07-02T01:06:27.486Z,16.10
2018-07-02T01:08:55.693Z,16.00
2018-07-02T01:11:23.822Z,16.00
2018-07-02T01:13:52.587Z,16.00
2018-07-02T01:16:20.758Z,16.00
2018-07-02T01:18:49.789Z,16.00
2018-07-02T01:21:18.681Z,16.00
2018-07-02T01:23:46.831Z,16.00
2018-07-02T01:26:16.065Z,16.10
2018-07-02T01:28:44.492Z,16.10
2018-07-02T01:31:13.162Z,16.00
2018-07-02T01:33:41.390Z,16.00
2018-07-02T01:36:09.587Z,16.00
2018-07-02T01:38:37.740Z,16.00
2018-07-02T01:41:05.876Z,16.00
2018-07-02T01:43:34.463Z,16.00
2018-07-02T01:48:30.883Z,15.90
2018-07-02T01:51:05.503Z,15.90
2018-07-02T01:53:33.675Z,15.90
2018-07-02T01:56:01.813Z,16.00
2018-07-02T01:58:29.969Z,15.90
2018-07-02T02:00:58.075Z,15.90
2018-07-02T02:03:26.211Z,15.80
2018-07-02T02:05:54.297Z,15.90
2018-07-02T02:08:22.450Z,15.80
2018-07-02T02:10:50.575Z,15.90
2018-07-02T02:13:18.706Z,15.80
2018-07-02T02:15:46.822Z,15.80
2018-07-02T02:18:14.991Z,15.80
2018-07-02T02:20:43.350Z,15.80
2018-07-02T02:23:11.479Z,15.70
2018-07-02T02:25:39.682Z,15.80
2018-07-02T02:28:07.824Z,15.70
2018-07-02T02:30:35.967Z,15.70
2018-07-02T02:33:04.123Z,15.60
2018-07-02T02:35:32.283Z,15.60
2018-07-02T02:38:00.465Z,15.50
2018-07-02T02:40:28.715Z,15.50
2018-07-02T02:42:56.853Z,15.40
2018-07-02T02:45:24.957Z,15.40
2018-07-02T02:47:53.077Z,15.50
2018-07-02T02:50:22.146Z,15.40
2018-07-02T02:52:50.283Z,15.40
2018-07-02T02:55:18.583Z,15.30
2018-07-02T02:57:46.690Z,15.30
2018-07-02T03:00:14.839Z,15.20
2018-07-02T03:02:42.974Z,15.20
2018-07-02T03:05:11.099Z,15.20
2018-07-02T03:07:39.242Z,15.20
2018-07-02T03:10:07.386Z,15.10
2018-07-02T03:12:35.549Z,15.10
2018-07-02T03:15:03.758Z,15.10
2018-07-02T03:17:31.894Z,15.00
2018-07-02T03:20:00.134Z,15.00
2018-07-02T03:22:28.283Z,15.10
2018-07-02T03:24:56.457Z,15.10
2018-07-02T03:27:24.588Z,15.20
2018-07-02T03:29:52.740Z,15.20
2018-07-02T03:32:20.887Z,15.20
2018-07-02T03:34:49.051Z,15.20
2018-07-02T03:37:17.454Z,15.20
2018-07-02T03:39:45.634Z,15.20
2018-07-02T03:42:13.798Z,15.20
2018-07-02T03:44:41.983Z,15.20
2018-07-02T03:47:10.137Z,15.20
2018-07-02T03:49:38.276Z,15.20
2018-07-02T03:52:06.441Z,15.20
2018-07-02T03:54:34.586Z,15.20
2018-07-02T03:57:02.761Z,15.20
2018-07-02T03:59:30.972Z,15.30
2018-07-02T04:01:59.224Z,15.30
2018-07-02T04:04:27.369Z,15.30
2018-07-02T04:06:55.552Z,15.30
2018-07-02T04:09:23.661Z,15.40
2018-07-02T04:11:51.811Z,15.40
2018-07-02T04:14:19.983Z,15.40
2018-07-02T04:16:48.136Z,15.40
2018-07-02T04:19:16.282Z,15.20
2018-07-02T04:21:44.480Z,15.10
2018-07-02T04:24:12.838Z,15.00
2018-07-02T04:26:41.802Z,15.10
2018-07-02T04:29:11.817Z,15.10
2018-07-02T04:31:39.967Z,15.10
2018-07-02T04:34:08.131Z,15.10
2018-07-02T04:36:36.450Z,15.20
2018-07-02T04:39:07.172Z,15.30
2018-07-02T04:41:35.503Z,15.30
2018-07-02T04:44:03.708Z,15.30
2018-07-02T04:46:31.882Z,15.50
2018-07-02T04:49:00.062Z,15.50
2018-07-02T04:51:28.219Z,15.60
2018-07-02T04:53:56.341Z,15.70
2018-07-02T04:56:24.490Z,15.80
2018-07-02T04:58:52.745Z,15.90
2018-07-02T05:01:20.877Z,16.10
2018-07-02T05:03:49.013Z,16.10
2018-07-02T05:06:17.169Z,16.30
2018-07-02T05:08:45.310Z,16.30
2018-07-02T05:11:13.546Z,16.40
2018-07-02T05:13:41.698Z,16.50
2018-07-02T05:16:09.878Z,16.60
2018-07-02T05:18:38.052Z,16.70
2018-07-02T05:21:06.266Z,16.70
2018-07-02T05:23:34.583Z,16.80
2018-07-02T05:26:02.783Z,16.80
2018-07-02T05:28:30.915Z,16.90
2018-07-02T05:30:59.045Z,17.10
2018-07-02T05:33:27.185Z,17.20
2018-07-02T05:35:55.341Z,17.30
2018-07-02T05:38:23.492Z,17.40
2018-07-02T05:40:51.594Z,17.60
2018-07-02T05:43:19.737Z,17.80
2018-07-02T05:45:47.850Z,18.00
2018-07-02T05:48:15.980Z,18.20
2018-07-02T05:50:44.127Z,18.40
2018-07-02T05:53:12.224Z,18.70
2018-07-02T05:55:40.933Z,18.90
2018-07-02T05:58:09.158Z,19.00
2018-07-02T06:00:38.498Z,19.10
2018-07-02T06:03:06.936Z,19.30
2018-07-02T06:08:03.266Z,19.80
2018-07-02T06:10:31.264Z,19.80
2018-07-02T06:12:59.383Z,20.00
2018-07-02T06:15:27.717Z,20.00
2018-07-02T06:17:55.880Z,20.20
2018-07-02T06:20:24.121Z,20.30
2018-07-02T06:22:52.269Z,20.60
2018-07-02T06:25:20.409Z,20.60
2018-07-02T06:27:48.578Z,20.90
2018-07-02T06:30:16.708Z,21.10
2018-07-02T06:32:44.819Z,21.20
2018-07-02T06:35:12.933Z,21.20
2018-07-02T06:37:41.061Z,21.10
2018-07-02T06:40:09.249Z,21.20
2018-07-02T06:42:37.426Z,21.40
2018-07-02T06:45:05.611Z,21.50
2018-07-02T06:47:33.808Z,21.70
2018-07-02T06:50:01.977Z,22.10
2018-07-02T06:52:30.142Z,22.30
2018-07-02T06:54:58.286Z,22.40
2018-07-02T06:57:26.393Z,22.40
2018-07-02T06:59:54.541Z,22.60
2018-07-02T07:02:22.654Z,22.70
2018-07-02T07:04:50.787Z,22.80
2018-07-02T07:07:18.901Z,22.80
2018-07-02T07:09:47.078Z,22.90
2018-07-02T07:12:15.214Z,22.90
2018-07-02T07:14:43.359Z,23.00
2018-07-02T07:17:11.500Z,23.20
2018-07-02T07:19:39.671Z,23.20
2018-07-02T07:22:07.853Z,23.20
2018-07-02T07:24:36.106Z,23.30
2018-07-02T07:27:04.368Z,23.40
2018-07-02T07:29:32.522Z,23.30
2018-07-02T07:32:00.658Z,23.60
2018-07-02T07:34:28.834Z,23.60
2018-07-02T07:36:56.989Z,23.60
2018-07-02T07:39:25.184Z,23.60
2018-07-02T07:41:53.330Z,23.90
2018-07-02T07:44:21.446Z,24.00
2018-07-02T07:46:49.571Z,24.00
2018-07-02T07:49:17.730Z,24.20
2018-07-02T07:51:45.907Z,24.20
2018-07-02T07:54:14.487Z,24.40
2018-07-02T07:56:42.679Z,24.60
2018-07-02T07:59:10.955Z,24.50
2018-07-02T08:01:39.154Z,24.50
2018-07-02T08:04:07.392Z,24.60
2018-07-02T08:06:35.698Z,24.50
2018-07-02T08:09:06.099Z,24.60
2018-07-02T08:11:34.274Z,24.50
2018-07-02T08:14:02.506Z,24.50
2018-07-02T08:16:30.751Z,24.30
2018-07-02T08:18:58.883Z,24.40
2018-07-02T08:21:26.994Z,24.40
2018-07-02T08:23:55.156Z,24.30
2018-07-02T08:26:23.350Z,24.30
2018-07-02T08:28:51.482Z,24.50
2018-07-02T08:31:20.225Z,24.70
2018-07-02T08:33:48.422Z,24.90
2018-07-02T08:36:17.215Z,24.90
2018-07-02T08:38:45.482Z,24.90
2018-07-02T08:41:13.605Z,25.10
2018-07-02T08:43:41.718Z,25.10
2018-07-02T08:46:09.986Z,25.30
2018-07-02T08:48:38.271Z,25.20
2018-07-02T08:51:06.631Z,25.30
2018-07-02T08:53:34.810Z,25.40
2018-07-02T08:56:03.021Z,25.60
2018-07-02T08:58:31.189Z,25.80
2018-07-02T09:00:59.315Z,25.80
2018-07-02T09:03:27.898Z,25.80
2018-07-02T09:05:56.047Z,25.80
2018-07-02T09:08:24.228Z,26.00
2018-07-02T09:10:53.271Z,26.00
2018-07-02T09:13:21.458Z,26.10
2018-07-02T09:15:50.633Z,26.10
2018-07-02T09:18:19.891Z,26.10
2018-07-02T09:20:48.087Z,26.20
2018-07-02T09:26:05.541Z,26.50
2018-07-02T09:31:34.291Z,26.80
2018-07-02T09:34:06.312Z,26.90
2018-07-02T09:36:36.623Z,27.00
2018-07-02T09:39:08.914Z,27.00
2018-07-02T09:41:37.316Z,26.90
2018-07-02T09:44:06.772Z,27.00
2018-07-02T09:46:35.741Z,27.10
2018-07-02T09:49:04.237Z,27.20
2018-07-02T09:51:32.788Z,27.40
2018-07-02T09:54:01.351Z,27.50
2018-07-02T09:56:33.384Z,27.60
2018-07-02T09:59:07.187Z,27.80
2018-07-02T10:01:37.079Z,27.90
2018-07-02T10:04:08.203Z,27.10
2018-07-02T10:06:38.110Z,27.20
2018-07-02T10:09:11.461Z,27.00
2018-07-02T10:11:40.056Z,27.20
2018-07-02T10:14:26.403Z,27.00
2018-07-02T10:16:54.538Z,27.30
2018-07-02T10:19:22.757Z,27.20
2018-07-02T10:21:50.995Z,27.40
2018-07-02T10:24:19.277Z,27.60
2018-07-02T10:26:50.471Z,27.80
2018-07-02T10:29:30.274Z,28.10
2018-07-02T10:31:58.467Z,28.40
2018-07-02T10:34:26.979Z,28.40
2018-07-02T10:39:47.033Z,28.40
2018-07-02T10:42:15.410Z,28.40
2018-07-02T10:44:43.524Z,28.30
2018-07-02T10:47:11.768Z,28.40
2018-07-02T10:49:39.937Z,28.60
2018-07-02T10:52:20.763Z,28.40
2018-07-02T10:54:49.090Z,28.50
2018-07-02T10:57:17.310Z,28.70
2018-07-02T10:59:45.457Z,28.80
2018-07-02T11:02:13.623Z,28.90
2018-07-02T11:04:41.781Z,29.10
2018-07-02T11:07:09.925Z,29.10
2018-07-02T11:09:38.082Z,28.80
2018-07-02T11:12:06.519Z,28.70
2018-07-02T11:14:34.733Z,28.90
2018-07-02T11:17:02.884Z,29.00
2018-07-02T11:19:31.352Z,29.10
2018-07-02T11:21:59.515Z,29.00
2018-07-02T11:24:27.670Z,28.80
2018-07-02T11:26:55.992Z,29.00
2018-07-02T11:29:24.181Z,29.20
2018-07-02T11:31:52.431Z,29.30
2018-07-02T11:37:19.845Z,29.20
2018-07-02T11:39:47.969Z,28.80
2018-07-02T11:42:16.150Z,29.00
2018-07-02T11:44:44.385Z,29.10
2018-07-02T11:47:12.593Z,29.20
2018-07-02T11:49:40.866Z,29.40
2018-07-02T11:52:09.217Z,29.50
2018-07-02T11:54:44.134Z,29.50
2018-07-02T11:57:23.388Z,29.50
2018-07-02T11:59:51.611Z,29.50
2018-07-02T12:02:19.943Z,29.60
2018-07-02T12:04:48.175Z,29.60
2018-07-02T12:07:16.314Z,29.70
2018-07-02T12:09:45.067Z,29.70
2018-07-02T12:12:13.267Z,29.70
2018-07-02T12:14:41.404Z,29.80
2018-07-02T12:17:09.563Z,29.80
2018-07-02T12:19:37.753Z,29.70
2018-07-02T12:22:06.427Z,29.70
2018-07-02T12:24:35.213Z,29.70
2018-07-02T12:27:03.383Z,29.80
2018-07-02T12:32:06.183Z,29.50
2018-07-02T12:34:34.396Z,29.60
2018-07-02T12:37:03.509Z,29.70
2018-07-02T12:39:31.857Z,29.80
2018-07-02T12:42:00.560Z,29.70
2018-07-02T12:44:28.719Z,29.60
2018-07-02T12:46:57.132Z,29.50
2018-07-02T12:49:25.346Z,29.60
2018-07-02T12:51:53.566Z,29.50
2018-07-02T12:54:24.781Z,29.60
2018-07-02T12:56:52.962Z,29.60
2018-07-02T12:59:21.762Z,29.70
2018-07-02T13:01:57.211Z,29.40
2018-07-02T13:04:26.296Z,29.30
2018-07-02T13:06:54.580Z,29.20
2018-07-02T13:09:22.759Z,29.40
2018-07-02T13:11:51.000Z,29.60
2018-07-02T13:14:19.411Z,29.70
2018-07-02T13:16:48.386Z,29.60
2018-07-02T13:19:17.026Z,29.70
2018-07-02T13:21:45.800Z,29.60
2018-07-02T13:24:23.267Z,29.50
2018-07-02T13:26:56.085Z,29.30
2018-07-02T13:29:42.459Z,29.30
2018-07-02T13:34:52.854Z,29.40
2018-07-02T13:37:21.215Z,29.40
2018-07-02T13:40:48.561Z,29.40
2018-07-02T13:43:16.938Z,29.50
2018-07-02T13:45:54.777Z,29.50
2018-07-02T13:48:23.188Z,29.40
2018-07-02T13:50:51.443Z,29.40
2018-07-02T13:53:19.657Z,29.50
2018-07-02T13:55:47.775Z,29.60
2018-07-02T13:58:16.035Z,29.70
2018-07-02T14:00:44.253Z,29.60
2018-07-02T14:03:12.599Z,29.60
2018-07-02T14:05:50.087Z,29.50
2018-07-02T14:08:18.639Z,29.30
2018-07-02T14:10:47.157Z,29.30
2018-07-02T14:13:15.472Z,29.30
2018-07-02T14:15:43.617Z,29.20
2018-07-02T14:18:11.849Z,29.20
2018-07-02T14:20:40.011Z,29.30
2018-07-02T14:23:08.236Z,29.40
2018-07-02T14:25:36.463Z,29.40
2018-07-02T14:28:04.632Z,29.40
2018-07-02T14:30:32.865Z,29.20
2018-07-02T14:33:01.384Z,29.20
2018-07-02T14:35:29.437Z,29.10
2018-07-02T14:37:57.564Z,29.10
2018-07-02T14:40:25.778Z,29.00
2018-07-02T14:43:00.627Z,29.10
2018-07-02T14:45:28.887Z,29.20
2018-07-02T14:47:56.967Z,29.40
2018-07-02T14:50:25.446Z,29.40
2018-07-02T14:52:53.640Z,29.50
2018-07-02T14:55:21.900Z,29.50
2018-07-02T14:57:50.050Z,29.60
2018-07-02T15:00:18.182Z,29.70
2018-07-02T15:02:46.326Z,29.60
2018-07-02T15:05:16.566Z,29.60
2018-07-02T15:07:44.717Z,29.50
2018-07-02T15:10:12.877Z,29.50
2018-07-02T15:12:42.389Z,29.50
2018-07-02T15:15:11.621Z,29.40
2018-07-02T15:17:41.661Z,29.40
2018-07-02T15:20:11.512Z,29.40
2018-07-02T15:22:39.992Z,29.30
2018-07-02T15:25:08.664Z,29.20
2018-07-02T15:27:37.091Z,29.20
2018-07-02T15:30:05.822Z,29.20
2018-07-02T15:32:34.601Z,29.20
2018-07-02T15:35:03.697Z,29.30
2018-07-02T15:37:32.584Z,29.30
2018-07-02T15:40:01.628Z,29.40
2018-07-02T15:42:30.174Z,29.30
2018-07-02T15:44:59.524Z,29.30
2018-07-02T15:47:28.058Z,29.20
2018-07-02T15:49:56.933Z,29.10
2018-07-02T15:52:25.830Z,29.10
2018-07-02T15:54:55.251Z,29.00
2018-07-02T15:57:23.986Z,28.90
2018-07-02T15:59:52.897Z,28.70
2018-07-02T16:02:21.404Z,28.70
2018-07-02T16:04:50.279Z,28.70
2018-07-02T16:07:19.542Z,28.60
2018-07-02T16:09:48.232Z,28.60
2018-07-02T16:12:17.007Z,28.60
2018-07-02T16:14:45.537Z,28.70
2018-07-02T16:17:14.804Z,28.70
2018-07-02T16:19:44.202Z,28.70
2018-07-02T16:22:13.861Z,28.60
2018-07-02T16:24:42.501Z,28.60
2018-07-02T16:27:11.029Z,28.60
2018-07-02T16:29:41.414Z,28.40
2018-07-02T16:32:10.296Z,28.30
2018-07-02T16:34:39.901Z,28.30
2018-07-02T16:37:08.556Z,28.40
2018-07-02T16:39:38.533Z,28.40
2018-07-02T16:42:09.016Z,28.40
2018-07-02T16:44:37.723Z,28.40
2018-07-02T16:47:06.490Z,28.40
2018-07-02T16:49:35.337Z,28.30
2018-07-02T16:52:04.148Z,28.30
2018-07-02T16:54:33.220Z,28.30
2018-07-02T16:57:02.015Z,28.30
2018-07-02T16:59:31.790Z,28.20
2018-07-02T17:02:01.854Z,28.20
2018-07-02T17:04:30.426Z,28.20
2018-07-02T17:06:59.415Z,28.10
2018-07-02T17:09:28.060Z,28.20
2018-07-02T17:14:26.376Z,28.10
2018-07-02T17:16:55.366Z,28.20
2018-07-02T17:19:24.449Z,28.10
2018-07-02T17:21:53.755Z,28.10
2018-07-02T17:24:24.567Z,28.10
2018-07-02T17:26:55.651Z,28.10
2018-07-02T17:29:25.453Z,28.10
2018-07-02T17:34:24.248Z,28.00
2018-07-02T17:36:53.270Z,27.90
2018-07-02T17:39:23.432Z,27.90
2018-07-02T17:41:52.763Z,27.90
2018-07-02T17:44:23.424Z,27.90
2018-07-02T17:46:53.078Z,28.00
2018-07-02T17:49:23.498Z,27.90
2018-07-02T17:51:52.456Z,27.80
2018-07-02T17:54:23.574Z,27.80
2018-07-02T17:56:52.579Z,27.80
2018-07-02T17:59:22.026Z,27.80
2018-07-02T18:01:51.309Z,27.80
2018-07-02T18:04:22.265Z,27.70
2018-07-02T18:06:51.974Z,27.70
2018-07-02T18:09:21.227Z,27.70
2018-07-02T18:11:49.877Z,27.50
2018-07-02T18:14:18.908Z,27.50
2018-07-02T18:16:48.226Z,27.40
2018-07-02T18:19:17.177Z,27.40
2018-07-02T18:21:45.694Z,27.30
2018-07-02T18:24:16.310Z,27.20
2018-07-02T18:26:45.460Z,27.10
2018-07-02T18:29:14.023Z,27.00
2018-07-02T18:31:43.513Z,27.00
2018-07-02T18:34:12.334Z,26.90
2018-07-02T18:36:41.285Z,26.90
2018-07-02T18:39:11.735Z,26.80
2018-07-02T18:41:41.960Z,26.70
2018-07-02T18:46:39.175Z,26.70
2018-07-02T18:49:08.188Z,26.60
2018-07-02T18:51:37.065Z,26.60
2018-07-02T18:54:06.129Z,26.60
2018-07-02T18:56:34.983Z,26.60
2018-07-02T18:59:04.269Z,26.50
2018-07-02T19:01:33.291Z,26.40
2018-07-02T19:04:02.387Z,26.30
2018-07-02T19:06:31.890Z,26.40
2018-07-02T19:09:01.195Z,26.30
2018-07-02T19:11:30.285Z,26.20
2018-07-02T19:13:59.752Z,26.20
2018-07-02T19:16:28.424Z,26.20
2018-07-02T19:18:57.046Z,26.20
2018-07-02T19:21:25.527Z,26.10
2018-07-02T19:23:54.299Z,26.00
2018-07-02T19:26:23.490Z,25.80
2018-07-02T19:28:52.310Z,25.70
2018-07-02T19:31:21.226Z,25.60
2018-07-02T19:33:50.305Z,25.50
2018-07-02T19:36:18.418Z,25.50
2018-07-02T19:38:46.592Z,25.50
2018-07-02T19:41:14.740Z,25.40
2018-07-02T19:43:43.015Z,25.30
2018-07-02T19:46:11.154Z,25.30
2018-07-02T19:48:39.283Z,25.20
2018-07-02T19:51:07.454Z,25.00
2018-07-02T19:53:35.635Z,24.90
2018-07-02T19:56:03.801Z,24.90
2018-07-02T19:58:31.986Z,24.80
2018-07-02T20:01:00.228Z,24.70
2018-07-02T20:03:28.328Z,24.50
2018-07-02T20:05:56.518Z,24.40
2018-07-02T20:08:24.682Z,24.20
2018-07-02T20:10:52.845Z,24.10
2018-07-02T20:13:20.987Z,24.10
2018-07-02T20:15:49.149Z,24.10
2018-07-02T20:18:17.302Z,24.10
2018-07-02T20:20:46.621Z,24.00
2018-07-02T20:23:14.804Z,23.90
2018-07-02T20:25:42.969Z,23.80
2018-07-02T20:28:12.112Z,23.70
2018-07-02T20:30:40.276Z,23.80
2018-07-02T20:33:08.436Z,23.80
2018-07-02T20:35:36.627Z,23.70
2018-07-02T20:38:05.927Z,23.60
2018-07-02T20:40:34.070Z,23.50
2018-07-02T20:43:02.206Z,23.40
2018-07-02T20:45:30.469Z,23.40
2018-07-02T20:47:58.624Z,23.30
2018-07-02T20:50:26.744Z,23.20
2018-07-02T20:52:55.337Z,23.20
2018-07-02T20:55:23.460Z,23.10
2018-07-02T20:57:51.732Z,23.20
2018-07-02T21:00:19.852Z,23.10
2018-07-02T21:02:47.976Z,23.10
2018-07-02T21:05:16.147Z,22.90
2018-07-02T21:07:45.290Z,22.90
2018-07-02T21:10:13.488Z,22.80
2018-07-02T21:12:41.590Z,22.70
2018-07-02T21:15:12.321Z,22.60
2018-07-02T21:17:40.467Z,22.60
2018-07-02T21:20:08.571Z,22.50
2018-07-02T21:22:36.742Z,22.40
2018-07-02T21:25:04.885Z,22.30
2018-07-02T21:27:33.013Z,22.30
2018-07-02T21:30:01.606Z,22.20
2018-07-02T21:32:29.761Z,22.10
2018-07-02T21:34:57.937Z,22.10
2018-07-02T21:37:26.123Z,22.10
2018-07-02T21:39:54.290Z,22.00
2018-07-02T21:42:22.423Z,21.90
2018-07-02T21:44:50.560Z,21.80
2018-07-02T21:47:18.692Z,21.80
2018-07-02T21:49:46.860Z,21.70
2018-07-02T21:52:14.992Z,21.60
2018-07-02T21:54:43.109Z,21.50
2018-07-02T21:57:11.306Z,21.50
2018-07-02T21:59:39.446Z,21.40
2018-07-02T22:02:07.603Z,21.30
2018-07-02T22:04:35.750Z,21.30
2018-07-02T22:07:03.924Z,21.30
2018-07-02T22:09:32.080Z,21.30
2018-07-02T22:12:00.197Z,21.30
2018-07-02T22:14:28.360Z,21.10
2018-07-02T22:16:56.591Z,21.10
2018-07-02T22:19:24.750Z,21.00
2018-07-02T22:21:53.268Z,20.90
2018-07-02T22:24:21.399Z,20.80
2018-07-02T22:26:49.537Z,20.80
2018-07-02T22:29:17.698Z,20.80
2018-07-02T22:31:45.861Z,20.70
2018-07-02T22:34:13.981Z,20.70
2018-07-02T22:36:42.112Z,20.60
2018-07-02T22:39:11.121Z,20.60
2018-07-02T22:41:39.253Z,20.50
2018-07-02T22:44:08.291Z,20.30
2018-07-02T22:46:36.499Z,20.20
2018-07-02T22:49:04.749Z,20.20
2018-07-02T22:51:32.923Z,20.10
2018-07-02T22:54:01.088Z,20.10
2018-07-02T22:56:29.238Z,20.00
2018-07-02T22:58:57.423Z,20.00
2018-07-02T23:01:25.664Z,20.00
2018-07-02T23:03:53.826Z,20.00
2018-07-02T23:06:22.694Z,19.90
2018-07-02T23:08:50.891Z,19.90
2018-07-02T23:11:19.022Z,19.90
2018-07-02T23:13:47.187Z,19.80
2018-07-02T23:16:15.321Z,19.80
2018-07-02T23:18:43.479Z,19.80
2018-07-02T23:21:11.602Z,19.80
2018-07-02T23:23:39.730Z,19.80
2018-07-02T23:26:07.889Z,19.70
2018-07-02T23:28:36.101Z,19.60
2018-07-02T23:31:04.238Z,19.60
2018-07-02T23:33:32.423Z,19.60
2018-07-02T23:36:00.538Z,19.50
2018-07-02T23:38:28.738Z,19.50
2018-07-02T23:40:56.957Z,19.50
2018-07-02T23:43:25.098Z,19.50
2018-07-02T23:45:53.234Z,19.50
2018-07-02T23:48:21.364Z,19.50
2018-07-02T23:50:49.506Z,19.40
2018-07-02T23:53:17.685Z,19.40
2018-07-02T23:55:45.797Z,19.40
2018-07-02T23:58:13.949Z,19.40
